createdAt,value
2023-01-02T00:01:43.112Z,3.58
2023-01-02T00:04:11.358Z,3.88
2023-01-02T00:06:40.345Z,3.65
2023-01-02T00:09:10.604Z,3.28
2023-01-02T00:11:39.506Z,3.33
2023-01-02T00:14:07.780Z,3.53
2023-01-02T00:16:36.345Z,3.40
2023-01-02T00:19:04.740Z,3.25
2023-01-02T00:21:36.350Z,4.25
2023-01-02T00:24:06.017Z,3.13
2023-01-02T00:26:35.955Z,3.97
2023-01-02T00:29:08.575Z,3.55
2023-01-02T00:31:38.446Z,3.42
2023-01-02T00:34:08.829Z,3.85
2023-01-02T00:36:37.255Z,4.47
2023-01-02T00:39:06.723Z,3.33
2023-01-02T00:41:40.717Z,3.38
2023-01-02T00:44:09.359Z,3.88
2023-01-02T00:46:37.953Z,3.55
2023-01-02T00:49:07.061Z,3.72
2023-01-02T00:51:35.700Z,3.85
2023-01-02T00:54:04.362Z,3.50
2023-01-02T00:56:32.933Z,3.28
2023-01-02T00:59:02.708Z,2.97
2023-01-02T01:01:30.985Z,3.25
2023-01-02T01:03:59.568Z,3.15
2023-01-02T01:06:28.121Z,3.00
2023-01-02T01:08:56.333Z,3.55
2023-01-02T01:11:24.609Z,3.22
2023-01-02T01:13:53.873Z,3.38
2023-01-02T01:16:23.484Z,3.30
2023-01-02T01:18:55.272Z,3.30
2023-01-02T01:21:24.157Z,4.03
2023-01-02T01:23:54.260Z,2.75
2023-01-02T01:26:24.146Z,3.75
2023-01-02T01:28:54.281Z,3.05
2023-01-02T01:31:24.948Z,3.45
2023-01-02T01:33:53.553Z,3.30
2023-01-02T01:36:25.045Z,3.30
2023-01-02T01:38:53.443Z,2.70
2023-01-02T01:41:24.403Z,2.80
2023-01-02T01:43:55.994Z,3.55
2023-01-02T01:46:32.044Z,3.70
2023-01-02T01:49:05.275Z,3.22
2023-01-02T01:51:39.283Z,3.88
2023-01-02T01:54:12.109Z,4.18
2023-01-02T01:56:44.751Z,3.63
2023-01-02T01:59:14.324Z,3.17
2023-01-02T02:01:45.035Z,2.60
2023-01-02T02:04:15.683Z,2.97
2023-01-02T02:06:44.251Z,2.92
2023-01-02T02:09:20.042Z,2.65
2023-01-02T02:11:48.959Z,2.60
2023-01-02T02:14:17.464Z,2.85
2023-01-02T02:16:54.782Z,2.45
2023-01-02T02:20:06.097Z,3.38
2023-01-02T02:23:18.345Z,2.28
2023-01-02T02:26:46.633Z,2.63
2023-01-02T02:30:09.836Z,2.72
2023-01-02T02:33:13.025Z,4.10
2023-01-02T02:35:54.353Z,3.22
2023-01-02T02:38:37.349Z,2.60
2023-01-02T02:41:17.238Z,3.35
2023-01-02T02:43:58.095Z,3.15
2023-01-02T02:46:38.130Z,3.42
2023-01-02T02:49:16.025Z,3.22
2023-01-02T02:51:51.625Z,3.17
2023-01-02T02:54:25.697Z,3.28
2023-01-02T02:56:55.215Z,3.38
2023-01-02T02:59:24.460Z,3.03
2023-01-02T03:01:52.755Z,3.13
2023-01-02T03:04:24.151Z,2.72
2023-01-02T03:07:12.169Z,3.55
2023-01-02T03:09:51.718Z,3.08
2023-01-02T03:12:33.128Z,2.60
2023-01-02T03:15:16.360Z,2.40
2023-01-02T03:18:05.417Z,2.47
2023-01-02T03:20:40.739Z,3.40
2023-01-02T03:23:17.208Z,2.50
2023-01-02T03:25:46.394Z,2.80
2023-01-02T03:28:19.968Z,2.58
2023-01-02T03:30:51.462Z,2.83
2023-01-02T03:33:26.238Z,2.53
2023-01-02T03:38:30.124Z,3.13
2023-01-02T03:41:07.738Z,2.42
2023-01-02T03:43:38.268Z,3.03
2023-01-02T03:46:14.843Z,2.63
2023-01-02T03:48:50.195Z,2.50
2023-01-02T03:51:20.282Z,3.10
2023-01-02T03:53:50.096Z,2.25
2023-01-02T03:56:28.193Z,3.08
2023-01-02T03:59:06.838Z,2.78
2023-01-02T04:01:42.153Z,2.53
2023-01-02T04:04:15.747Z,2.72
2023-01-02T04:06:51.841Z,2.53
2023-01-02T04:09:23.284Z,2.22
2023-01-02T04:11:57.282Z,2.40
2023-01-02T04:14:31.868Z,2.60
2023-01-02T04:17:04.430Z,2.63
2023-01-02T04:19:36.790Z,2.80
2023-01-02T04:22:15.549Z,2.20
2023-01-02T04:24:49.794Z,2.42
2023-01-02T04:27:26.532Z,2.85
2023-01-02T04:29:55.661Z,2.60
2023-01-02T04:32:29.997Z,2.72
2023-01-02T04:35:01.687Z,1.90
2023-01-02T04:37:35.000Z,2.70
2023-01-02T04:40:11.795Z,2.33
2023-01-02T04:42:40.433Z,2.28
2023-01-02T04:45:10.275Z,2.10
2023-01-02T04:47:38.562Z,2.67
2023-01-02T04:50:08.418Z,2.92
2023-01-02T04:52:38.306Z,3.15
2023-01-02T04:55:08.254Z,2.47
2023-01-02T04:57:37.045Z,2.47
2023-01-02T05:00:09.073Z,3.20
2023-01-02T05:02:38.021Z,2.83
2023-01-02T05:05:09.052Z,2.50
2023-01-02T05:07:39.532Z,2.35
2023-01-02T05:10:10.047Z,2.83
2023-01-02T05:12:39.929Z,2.47
2023-01-02T05:15:10.355Z,2.92
2023-01-02T05:17:40.268Z,2.38
2023-01-02T05:20:11.467Z,3.08
2023-01-02T05:22:59.466Z,2.67
2023-01-02T05:25:29.085Z,2.80
2023-01-02T05:27:57.632Z,2.95
2023-01-02T05:30:26.988Z,3.20
2023-01-02T05:32:55.593Z,2.50
2023-01-02T05:35:30.187Z,2.80
2023-01-02T05:38:02.709Z,2.13
2023-01-02T05:40:31.241Z,2.85
2023-01-02T05:43:00.100Z,2.42
2023-01-02T05:45:28.444Z,2.10
2023-01-02T05:47:56.816Z,2.63
2023-01-02T05:50:25.328Z,2.72
2023-01-02T05:52:53.838Z,2.38
2023-01-02T05:55:23.462Z,3.15
2023-01-02T05:57:58.539Z,2.97
2023-01-02T06:00:26.823Z,2.20
2023-01-02T06:02:55.478Z,2.63
2023-01-02T06:05:24.081Z,2.83
2023-01-02T06:07:52.315Z,2.53
2023-01-02T06:10:20.909Z,2.40
2023-01-02T06:12:50.722Z,2.65
2023-01-02T06:15:19.245Z,2.40
2023-01-02T06:17:49.454Z,3.17
2023-01-02T06:20:17.963Z,2.50
2023-01-02T06:22:46.525Z,2.55
2023-01-02T06:25:15.155Z,3.15
2023-01-02T06:27:43.684Z,2.90
2023-01-02T06:30:14.065Z,2.70
2023-01-02T06:32:42.779Z,2.60
2023-01-02T06:35:11.326Z,3.25
2023-01-02T06:37:44.991Z,3.22
2023-01-02T06:40:14.004Z,2.92
2023-01-02T06:42:44.542Z,3.00
2023-01-02T06:45:14.551Z,2.50
2023-01-02T06:47:43.062Z,2.88
2023-01-02T06:50:11.667Z,2.70
2023-01-02T06:52:40.829Z,2.88
2023-01-02T06:55:09.585Z,3.17
2023-01-02T06:57:38.079Z,4.22
2023-01-02T07:00:07.760Z,4.63
2023-01-02T07:02:37.384Z,4.38
2023-01-02T07:05:06.647Z,4.05
2023-01-02T07:07:37.538Z,4.10
2023-01-02T07:10:07.104Z,4.28
2023-01-02T07:12:36.436Z,3.75
2023-01-02T07:15:06.635Z,3.78
2023-01-02T07:17:36.661Z,3.85
2023-01-02T07:20:05.952Z,3.28
2023-01-02T07:22:34.210Z,3.28
2023-01-02T07:25:02.699Z,3.47
2023-01-02T07:27:31.321Z,3.45
2023-01-02T07:29:59.662Z,3.35
2023-01-02T07:32:27.981Z,3.17
2023-01-02T07:34:57.556Z,3.20
2023-01-02T07:37:26.139Z,4.07
2023-01-02T07:39:54.629Z,3.17
2023-01-02T07:42:23.184Z,2.85
2023-01-02T07:44:51.707Z,2.28
2023-01-02T07:47:20.264Z,3.45
2023-01-02T07:49:48.761Z,3.22
2023-01-02T07:52:18.339Z,3.70
2023-01-02T07:54:46.853Z,2.85
2023-01-02T07:57:15.379Z,2.70
2023-01-02T07:59:44.978Z,2.30
2023-01-02T08:02:13.558Z,2.70
2023-01-02T08:04:42.114Z,2.30
2023-01-02T08:07:11.410Z,2.30
2023-01-02T08:09:40.984Z,3.00
2023-01-02T08:12:09.344Z,2.22
2023-01-02T08:14:37.709Z,2.25
2023-01-02T08:17:05.974Z,2.97
2023-01-02T08:19:34.563Z,2.47
2023-01-02T08:22:03.350Z,3.20
2023-01-02T08:24:31.860Z,2.70
2023-01-02T08:27:01.522Z,2.53
2023-01-02T08:29:29.802Z,2.85
2023-01-02T08:31:59.441Z,2.60
2023-01-02T08:34:27.941Z,2.60
2023-01-02T08:36:56.274Z,2.72
2023-01-02T08:39:24.758Z,2.65
2023-01-02T08:41:53.357Z,2.47
2023-01-02T08:44:22.925Z,2.67
2023-01-02T08:46:51.293Z,2.70
2023-01-02T08:49:19.954Z,2.65
2023-01-02T08:51:48.322Z,2.30
2023-01-02T08:54:16.865Z,2.45
2023-01-02T08:56:45.059Z,2.45
2023-01-02T08:59:14.037Z,2.10
2023-01-02T09:01:43.823Z,2.40
2023-01-02T09:04:13.521Z,2.13
2023-01-02T09:06:45.114Z,2.45
2023-01-02T09:09:15.735Z,1.83
2023-01-02T09:11:48.902Z,2.20
2023-01-02T09:14:17.742Z,2.88
2023-01-02T09:16:48.046Z,2.72
2023-01-02T09:19:16.288Z,2.08
2023-01-02T09:22:40.596Z,2.15
2023-01-02T09:25:10.405Z,2.22
2023-01-02T09:27:38.590Z,1.70
2023-01-02T09:30:08.266Z,2.00
2023-01-02T09:32:37.157Z,2.15
2023-01-02T09:35:06.701Z,2.60
2023-01-02T09:37:35.263Z,2.00
2023-01-02T09:40:06.720Z,2.22
2023-01-02T09:42:35.247Z,2.00
2023-01-02T09:45:09.164Z,2.28
2023-01-02T09:47:40.576Z,2.13
2023-01-02T09:50:16.483Z,2.13
2023-01-02T09:52:50.510Z,2.15
2023-01-02T09:55:36.763Z,2.25
2023-01-02T09:58:17.053Z,2.42
2023-01-02T10:00:49.035Z,2.70
2023-01-02T10:03:27.900Z,2.08
2023-01-02T10:06:16.215Z,1.70
2023-01-02T10:08:56.905Z,2.67
2023-01-02T10:11:44.608Z,2.20
2023-01-02T10:14:24.010Z,2.47
2023-01-02T10:17:01.675Z,2.40
2023-01-02T10:19:41.503Z,2.80
2023-01-02T10:22:14.537Z,2.83
2023-01-02T10:24:47.801Z,2.33
2023-01-02T10:27:23.335Z,2.70
2023-01-02T10:30:03.622Z,2.30
2023-01-02T10:32:36.199Z,2.47
2023-01-02T10:35:23.035Z,2.10
2023-01-02T10:37:53.213Z,2.85
2023-01-02T10:40:21.791Z,2.00
2023-01-02T10:43:00.089Z,2.42
2023-01-02T10:45:29.330Z,2.40
2023-01-02T10:47:57.575Z,2.00
2023-01-02T10:50:39.495Z,2.20
2023-01-02T10:53:10.661Z,2.03
2023-01-02T10:55:41.914Z,1.88
2023-01-02T10:58:22.319Z,2.33
2023-01-02T11:00:52.366Z,2.30
2023-01-02T11:03:25.290Z,1.80
2023-01-02T11:05:59.372Z,1.67
2023-01-02T11:11:16.282Z,2.25
2023-01-02T11:13:54.514Z,1.60
2023-01-02T11:16:25.695Z,2.00
2023-01-02T11:18:58.372Z,1.80
2023-01-02T11:21:29.896Z,1.20
2023-01-02T11:24:04.461Z,2.85
2023-01-02T11:29:09.560Z,1.98
2023-01-02T11:31:44.123Z,2.35
2023-01-02T11:34:21.640Z,1.70
2023-01-02T11:37:14.403Z,1.58
2023-01-02T11:39:43.685Z,1.83
2023-01-02T11:42:40.311Z,2.05
2023-01-02T11:45:14.722Z,2.40
2023-01-02T11:47:47.906Z,2.20
2023-01-02T11:50:24.020Z,2.05
2023-01-02T11:53:01.387Z,1.58
2023-01-02T11:55:41.267Z,2.00
2023-01-02T11:58:20.277Z,2.53
2023-01-02T12:00:56.363Z,2.28
2023-01-02T12:03:28.036Z,1.55
2023-01-02T12:06:10.744Z,1.60
2023-01-02T12:08:54.497Z,1.90
2023-01-02T12:11:34.295Z,2.92
2023-01-02T12:14:14.636Z,2.42
2023-01-02T12:16:56.965Z,1.60
2023-01-02T12:20:03.352Z,2.10
2023-01-02T12:23:10.590Z,2.10
2023-01-02T12:26:05.592Z,1.98
2023-01-02T12:29:47.227Z,2.20
2023-01-02T12:32:58.430Z,1.80
2023-01-02T12:36:02.646Z,1.67
2023-01-02T12:38:48.535Z,2.05
2023-01-02T12:41:28.699Z,2.20
2023-01-02T12:44:14.274Z,2.00
2023-01-02T12:47:03.123Z,1.75
2023-01-02T12:49:57.248Z,2.60
2023-01-02T12:52:46.162Z,2.10
2023-01-02T12:55:28.770Z,1.92
2023-01-02T12:58:03.682Z,2.00
2023-01-02T13:04:00.493Z,1.65
2023-01-02T13:06:51.640Z,2.72
2023-01-02T13:09:29.240Z,1.55
2023-01-02T13:12:06.020Z,2.10
2023-01-02T13:14:40.983Z,1.90
2023-01-02T13:17:32.236Z,1.83
2023-01-02T13:20:06.337Z,2.25
2023-01-02T13:22:42.595Z,2.28
2023-01-02T13:25:17.407Z,2.08
2023-01-02T13:30:46.576Z,1.88
2023-01-02T13:33:30.332Z,1.92
2023-01-02T13:36:03.665Z,1.92
2023-01-02T13:38:37.685Z,1.85
2023-01-02T13:41:06.352Z,1.90
2023-01-02T13:43:35.448Z,2.35
2023-01-02T13:46:04.289Z,2.28
2023-01-02T13:48:39.089Z,1.90
2023-01-02T13:53:46.798Z,1.60
2023-01-02T13:56:17.072Z,1.92
2023-01-02T13:58:52.992Z,2.78
2023-01-02T14:02:16.684Z,2.03
2023-01-02T14:04:45.389Z,1.83
2023-01-02T14:07:48.769Z,1.85
2023-01-02T14:10:42.462Z,2.45
2023-01-02T14:13:25.659Z,1.85
2023-01-02T14:16:33.705Z,2.10
2023-01-02T14:19:24.415Z,2.50
2023-01-02T14:22:03.483Z,2.72
2023-01-02T14:24:38.239Z,2.53
2023-01-02T14:29:53.261Z,2.35
2023-01-02T14:32:28.791Z,2.80
2023-01-02T14:34:59.437Z,1.75
2023-01-02T14:37:36.400Z,1.92
2023-01-02T14:40:36.281Z,2.67
2023-01-02T14:43:32.339Z,1.77
2023-01-02T14:46:10.100Z,1.83
2023-01-02T14:48:48.959Z,2.25
2023-01-02T14:51:24.169Z,1.80
2023-01-02T14:53:57.765Z,1.92
2023-01-02T14:56:32.572Z,2.15
2023-01-02T14:59:04.221Z,2.33
2023-01-02T15:01:43.863Z,1.98
2023-01-02T15:04:22.720Z,2.40
2023-01-02T15:06:58.639Z,2.35
2023-01-02T15:09:33.594Z,2.40
2023-01-02T15:14:50.631Z,2.30
2023-01-02T15:17:22.536Z,2.67
2023-01-02T15:19:51.330Z,2.00
2023-01-02T15:22:23.721Z,2.72
2023-01-02T15:24:54.880Z,1.80
2023-01-02T15:27:26.202Z,2.03
2023-01-02T15:29:59.712Z,3.85
2023-01-02T15:32:31.940Z,1.98
2023-01-02T15:35:20.872Z,2.60
2023-01-02T15:37:50.604Z,2.58
2023-01-02T15:40:25.462Z,1.95
2023-01-02T15:45:46.662Z,3.30
2023-01-02T15:48:15.602Z,2.20
2023-01-02T15:50:44.414Z,2.35
2023-01-02T15:53:24.365Z,1.58
2023-01-02T15:55:53.121Z,2.72
2023-01-02T15:58:27.842Z,1.70
2023-01-02T16:04:03.351Z,0.70
2023-01-02T16:06:35.147Z,0.73
2023-01-02T16:09:06.385Z,0.70
2023-01-02T16:11:46.656Z,0.82
2023-01-02T16:14:21.913Z,0.52
2023-01-02T16:16:56.988Z,0.88
2023-01-02T16:19:32.546Z,0.80
2023-01-02T16:22:16.668Z,0.70
2023-01-02T16:24:48.135Z,0.50
2023-01-02T16:27:25.083Z,0.68
2023-01-02T16:29:54.535Z,1.10
2023-01-02T16:32:29.154Z,0.77
2023-01-02T16:35:22.505Z,0.98
2023-01-02T16:37:56.383Z,0.52
2023-01-02T16:40:59.752Z,0.90
2023-01-02T16:43:37.976Z,0.38
2023-01-02T16:46:15.220Z,0.45
2023-01-02T16:48:47.055Z,0.60
2023-01-02T16:51:16.709Z,0.40
2023-01-02T16:53:46.457Z,0.60
2023-01-02T16:56:16.060Z,0.73
2023-01-02T16:58:44.587Z,0.60
2023-01-02T17:01:15.129Z,0.63
2023-01-02T17:03:45.521Z,0.68
2023-01-02T17:06:18.167Z,0.68
2023-01-02T17:08:46.950Z,0.77
2023-01-02T17:11:21.453Z,0.65
2023-01-02T17:13:50.271Z,0.40
2023-01-02T17:16:19.584Z,0.52
2023-01-02T17:18:49.332Z,1.10
2023-01-02T17:21:17.584Z,1.10
2023-01-02T17:23:45.841Z,0.60
2023-01-02T17:26:14.214Z,0.77
2023-01-02T17:28:42.762Z,0.63
2023-01-02T17:31:15.454Z,0.70
2023-01-02T17:33:44.250Z,0.98
2023-01-02T17:36:14.860Z,0.47
2023-01-02T17:38:44.250Z,0.90
2023-01-02T17:41:12.808Z,0.57
2023-01-02T17:44:02.684Z,0.80
2023-01-02T17:47:04.499Z,1.33
2023-01-02T17:49:18.489Z,1.10
2023-01-02T17:51:48.139Z,1.05
2023-01-02T17:54:16.709Z,1.05
2023-01-02T17:56:47.247Z,0.85
2023-01-02T17:59:19.168Z,1.05
2023-01-02T18:01:48.351Z,1.05
2023-01-02T18:04:17.281Z,1.20
2023-01-02T18:06:47.172Z,1.02
2023-01-02T18:09:16.683Z,0.95
2023-01-02T18:11:45.298Z,1.05
2023-01-02T18:14:18.760Z,1.17
2023-01-02T18:16:48.234Z,1.10
2023-01-02T18:19:18.986Z,1.10
2023-01-02T18:21:48.883Z,1.55
2023-01-02T18:24:25.000Z,0.90
2023-01-02T18:27:00.648Z,1.20
2023-01-02T18:29:29.232Z,1.15
2023-01-02T18:31:57.789Z,1.30
2023-01-02T18:34:48.107Z,1.40
2023-01-02T18:37:22.404Z,1.48
2023-01-02T18:39:52.001Z,1.33
2023-01-02T18:42:22.915Z,0.95
2023-01-02T18:44:52.763Z,1.08
2023-01-02T18:47:29.654Z,1.10
2023-01-02T18:50:03.320Z,0.95
2023-01-02T18:52:36.926Z,1.15
2023-01-02T18:55:22.672Z,0.90
2023-01-02T18:57:56.631Z,1.00
2023-01-02T19:00:28.541Z,0.70
2023-01-02T19:03:01.533Z,1.10
2023-01-02T19:05:33.276Z,0.73
2023-01-02T19:08:20.550Z,0.90
2023-01-02T19:10:53.091Z,0.60
2023-01-02T19:13:32.307Z,1.13
2023-01-02T19:16:02.110Z,0.90
2023-01-02T19:18:37.810Z,0.85
2023-01-02T19:21:18.531Z,0.93
2023-01-02T19:23:53.873Z,0.65
2023-01-02T19:26:28.244Z,0.70
2023-01-02T19:29:00.644Z,0.60
2023-01-02T19:31:41.063Z,0.70
2023-01-02T19:34:29.180Z,1.10
2023-01-02T19:37:18.541Z,1.00
2023-01-02T19:39:52.005Z,0.82
2023-01-02T19:42:22.208Z,0.90
2023-01-02T19:44:53.746Z,0.90
2023-01-02T19:47:24.830Z,0.93
2023-01-02T19:49:53.711Z,1.40
2023-01-02T19:52:23.664Z,0.80
2023-01-02T19:54:53.598Z,0.73
2023-01-02T19:57:23.506Z,0.60
2023-01-02T19:59:55.496Z,1.25
2023-01-02T20:02:25.511Z,1.17
2023-01-02T20:04:55.444Z,0.93
2023-01-02T20:07:25.142Z,0.70
2023-01-02T20:09:54.847Z,0.88
2023-01-02T20:12:34.572Z,1.50
2023-01-02T20:15:08.843Z,1.00
2023-01-02T20:17:38.779Z,1.30
2023-01-02T20:20:09.853Z,1.00
2023-01-02T20:22:38.164Z,1.20
2023-01-02T20:25:09.026Z,1.05
2023-01-02T20:27:37.762Z,0.60
2023-01-02T20:30:08.596Z,0.75
2023-01-02T20:32:37.341Z,0.90
2023-01-02T20:35:06.741Z,1.00
2023-01-02T20:37:35.060Z,1.10
2023-01-02T20:40:03.663Z,1.52
2023-01-02T20:42:33.827Z,1.30
2023-01-02T20:45:02.655Z,1.48
2023-01-02T20:47:31.262Z,8.13
2023-01-02T20:50:02.355Z,4.88
2023-01-02T20:52:30.910Z,2.70
2023-01-02T20:54:59.776Z,0.80
2023-01-02T20:57:28.335Z,1.05
2023-01-02T20:59:57.960Z,1.90
2023-01-02T21:02:26.773Z,1.42
2023-01-02T21:04:55.896Z,1.42
2023-01-02T21:07:24.634Z,0.73
2023-01-02T21:09:57.462Z,1.17
2023-01-02T21:12:43.564Z,1.27
2023-01-02T21:15:33.868Z,0.80
2023-01-02T21:18:02.666Z,1.40
2023-01-02T21:20:31.237Z,0.75
2023-01-02T21:22:59.500Z,0.85
2023-01-02T21:25:28.261Z,0.85
2023-01-02T21:27:56.946Z,0.70
2023-01-02T21:30:26.567Z,1.00
2023-01-02T21:32:54.913Z,0.60
2023-01-02T21:35:23.745Z,0.70
2023-01-02T21:37:52.821Z,0.70
2023-01-02T21:40:21.432Z,1.10
2023-01-02T21:42:50.032Z,0.80
2023-01-02T21:45:18.974Z,0.88
2023-01-02T21:47:48.862Z,0.70
2023-01-02T21:50:17.375Z,0.65
2023-01-02T21:52:45.956Z,0.75
2023-01-02T21:55:17.455Z,0.93
2023-01-02T21:58:12.519Z,0.93
2023-01-02T22:00:34.911Z,0.88
2023-01-02T22:03:04.986Z,0.60
2023-01-02T22:05:33.643Z,0.68
2023-01-02T22:08:02.213Z,0.93
2023-01-02T22:10:30.829Z,0.90
2023-01-02T22:12:59.359Z,0.70
2023-01-02T22:15:27.920Z,0.85
2023-01-02T22:17:58.788Z,0.73
2023-01-02T22:20:28.403Z,0.80
2023-01-02T22:22:57.128Z,0.85
2023-01-02T22:25:25.713Z,0.90
2023-01-02T22:27:54.282Z,0.73
2023-01-02T22:30:29.343Z,0.95
2023-01-02T22:33:02.097Z,0.88
2023-01-02T22:35:31.796Z,0.82
2023-01-02T22:38:00.112Z,0.63
2023-01-02T22:40:29.397Z,0.82
2023-01-02T22:43:03.418Z,0.98
2023-01-02T22:45:38.099Z,0.85
2023-01-02T22:48:15.587Z,0.80
2023-01-02T22:50:47.036Z,1.13
2023-01-02T22:53:28.404Z,1.05
2023-01-02T22:55:57.095Z,0.80
2023-01-02T22:58:26.189Z,0.90
2023-01-02T23:01:00.339Z,0.98
2023-01-02T23:03:30.374Z,0.93
2023-01-02T23:06:00.031Z,1.08
2023-01-02T23:08:29.010Z,1.02
2023-01-02T23:10:57.642Z,1.00
2023-01-02T23:13:26.194Z,1.10
2023-01-02T23:16:12.561Z,1.05
2023-01-02T23:18:58.829Z,1.17
2023-01-02T23:21:31.215Z,1.02
2023-01-02T23:23:59.975Z,1.10
2023-01-02T23:26:43.464Z,0.95
2023-01-02T23:29:13.002Z,1.20
2023-01-02T23:31:43.498Z,1.08
2023-01-02T23:34:13.787Z,1.05
2023-01-02T23:36:44.273Z,1.15
2023-01-02T23:39:14.890Z,0.90
2023-01-02T23:41:45.482Z,0.82
2023-01-02T23:44:14.431Z,0.93
2023-01-02T23:46:43.618Z,1.00
2023-01-02T23:49:13.347Z,1.10
2023-01-02T23:51:43.280Z,1.10
2023-01-02T23:54:14.698Z,1.10
2023-01-02T23:56:46.387Z,0.80
2023-01-02T23:59:17.927Z,1.30
